sensor_id;sensor_type;location;lat;lon;timestamp;temperature;humidity
37340;DHT22;23223;51.006;7.610;2023-07-31T00:02:14;16.10;99.90
37340;DHT22;23223;51.006;7.610;2023-07-31T00:04:40;16.10;99.90
37340;DHT22;23223;51.006;7.610;2023-07-31T00:07:05;16.10;99.90
37340;DHT22;23223;51.006;7.610;2023-07-31T00:09:32;16.20;99.90
37340;DHT22;23223;51.006;7.610;2023-07-31T00:11:58;16.20;99.90
37340;DHT22;23223;51.006;7.610;2023-07-31T00:14:24;16.30;99.90
37340;DHT22;23223;51.006;7.610;2023-07-31T00:16:49;16.30;99.90
37340;DHT22;23223;51.006;7.610;2023-07-31T00:19:15;16.20;99.90
37340;DHT22;23223;51.006;7.610;2023-07-31T00:21:40;16.10;99.90
37340;DHT22;23223;51.006;7.610;2023-07-31T00:24:06;16.10;99.90
37340;DHT22;23223;51.006;7.610;2023-07-31T00:26:31;16.00;99.90
37340;DHT22;23223;51.006;7.610;2023-07-31T00:28:57;15.90;99.90
37340;DHT22;23223;51.006;7.610;2023-07-31T00:31:22;15.90;99.90
37340;DHT22;23223;51.006;7.610;2023-07-31T00:33:48;15.80;99.90
37340;DHT22;23223;51.006;7.610;2023-07-31T00:36:13;15.80;99.90
37340;DHT22;23223;51.006;7.610;2023-07-31T00:38:39;15.80;99.90
37340;DHT22;23223;51.006;7.610;2023-07-31T00:41:05;15.90;99.90
37340;DHT22;23223;51.006;7.610;2023-07-31T00:43:30;16.20;99.90
37340;DHT22;23223;51.006;7.610;2023-07-31T00:45:56;16.30;99.90
37340;DHT22;23223;51.006;7.610;2023-07-31T00:48:21;16.30;99.90
37340;DHT22;23223;51.006;7.610;2023-07-31T00:50:47;16.20;99.90
37340;DHT22;23223;51.006;7.610;2023-07-31T00:53:13;16.30;99.90
37340;DHT22;23223;51.006;7.610;2023-07-31T00:55:39;16.30;99.90
37340;DHT22;23223;51.006;7.610;2023-07-31T00:58:05;16.30;99.90
37340;DHT22;23223;51.006;7.610;2023-07-31T01:00:30;16.30;99.90
37340;DHT22;23223;51.006;7.610;2023-07-31T01:02:56;16.30;99.90
37340;DHT22;23223;51.006;7.610;2023-07-31T01:05:36;16.30;99.90
37340;DHT22;23223;51.006;7.610;2023-07-31T01:08:52;16.30;99.90
37340;DHT22;23223;51.006;7.610;2023-07-31T01:11:07;16.30;99.90
37340;DHT22;23223;51.006;7.610;2023-07-31T01:13:35;16.30;99.90
37340;DHT22;23223;51.006;7.610;2023-07-31T01:16:01;16.20;99.90
37340;DHT22;23223;51.006;7.610;2023-07-31T01:18:26;16.10;99.90
37340;DHT22;23223;51.006;7.610;2023-07-31T01:20:57;16.00;99.90
37340;DHT22;23223;51.006;7.610;2023-07-31T01:26:33;16.00;99.90
37340;DHT22;23223;51.006;7.610;2023-07-31T01:29:10;16.00;99.90
37340;DHT22;23223;51.006;7.610;2023-07-31T01:31:36;16.00;99.90
37340;DHT22;23223;51.006;7.610;2023-07-31T01:34:03;16.00;99.90
37340;DHT22;23223;51.006;7.610;2023-07-31T01:36:30;16.10;99.90
37340;DHT22;23223;51.006;7.610;2023-07-31T01:39:00;16.20;99.90
37340;DHT22;23223;51.006;7.610;2023-07-31T01:41:26;16.20;99.90
37340;DHT22;23223;51.006;7.610;2023-07-31T01:43:52;16.20;99.90
37340;DHT22;23223;51.006;7.610;2023-07-31T01:46:17;16.20;99.90
37340;DHT22;23223;51.006;7.610;2023-07-31T01:48:43;16.20;99.90
37340;DHT22;23223;51.006;7.610;2023-07-31T01:51:08;16.30;99.90
37340;DHT22;23223;51.006;7.610;2023-07-31T01:53:34;16.30;99.90
37340;DHT22;23223;51.006;7.610;2023-07-31T01:55:59;16.20;99.90
37340;DHT22;23223;51.006;7.610;2023-07-31T01:58:25;16.10;99.90
37340;DHT22;23223;51.006;7.610;2023-07-31T02:00:51;16.10;99.90
37340;DHT22;23223;51.006;7.610;2023-07-31T02:03:16;16.10;99.90
37340;DHT22;23223;51.006;7.610;2023-07-31T02:05:45;16.00;99.90
37340;DHT22;23223;51.006;7.610;2023-07-31T02:08:11;16.10;99.90
37340;DHT22;23223;51.006;7.610;2023-07-31T02:10:37;16.10;99.90
37340;DHT22;23223;51.006;7.610;2023-07-31T02:13:02;16.10;99.90
37340;DHT22;23223;51.006;7.610;2023-07-31T02:15:29;16.20;99.90
37340;DHT22;23223;51.006;7.610;2023-07-31T02:17:55;16.10;99.90
37340;DHT22;23223;51.006;7.610;2023-07-31T02:20:21;16.20;99.90
37340;DHT22;23223;51.006;7.610;2023-07-31T02:22:46;16.20;99.90
37340;DHT22;23223;51.006;7.610;2023-07-31T02:25:12;16.20;99.90
37340;DHT22;23223;51.006;7.610;2023-07-31T02:27:37;16.20;99.90
37340;DHT22;23223;51.006;7.610;2023-07-31T02:30:03;16.20;99.90
37340;DHT22;23223;51.006;7.610;2023-07-31T02:32:29;16.10;99.90
37340;DHT22;23223;51.006;7.610;2023-07-31T02:34:54;16.10;99.90
37340;DHT22;23223;51.006;7.610;2023-07-31T02:37:20;16.00;99.90
37340;DHT22;23223;51.006;7.610;2023-07-31T02:39:45;16.20;99.90
37340;DHT22;23223;51.006;7.610;2023-07-31T02:42:11;16.30;99.90
37340;DHT22;23223;51.006;7.610;2023-07-31T02:44:36;16.30;99.90
37340;DHT22;23223;51.006;7.610;2023-07-31T02:47:02;16.20;99.90
37340;DHT22;23223;51.006;7.610;2023-07-31T02:49:28;16.20;99.90
37340;DHT22;23223;51.006;7.610;2023-07-31T02:51:54;16.30;99.90
37340;DHT22;23223;51.006;7.610;2023-07-31T02:54:19;16.50;99.90
37340;DHT22;23223;51.006;7.610;2023-07-31T02:56:47;16.50;99.90
37340;DHT22;23223;51.006;7.610;2023-07-31T02:59:13;16.40;99.90
37340;DHT22;23223;51.006;7.610;2023-07-31T03:01:38;16.30;99.90
37340;DHT22;23223;51.006;7.610;2023-07-31T03:04:04;16.20;99.90
37340;DHT22;23223;51.006;7.610;2023-07-31T03:06:30;16.20;99.90
37340;DHT22;23223;51.006;7.610;2023-07-31T03:08:55;16.20;99.90
37340;DHT22;23223;51.006;7.610;2023-07-31T03:11:21;16.10;99.90
37340;DHT22;23223;51.006;7.610;2023-07-31T03:13:46;16.10;99.90
37340;DHT22;23223;51.006;7.610;2023-07-31T03:16:12;16.10;99.90
37340;DHT22;23223;51.006;7.610;2023-07-31T03:18:37;16.10;99.90
37340;DHT22;23223;51.006;7.610;2023-07-31T03:21:04;16.20;99.90
37340;DHT22;23223;51.006;7.610;2023-07-31T03:23:30;16.20;99.90
37340;DHT22;23223;51.006;7.610;2023-07-31T03:26:00;16.20;99.90
37340;DHT22;23223;51.006;7.610;2023-07-31T03:28:26;16.20;99.90
37340;DHT22;23223;51.006;7.610;2023-07-31T03:30:52;16.20;99.90
37340;DHT22;23223;51.006;7.610;2023-07-31T03:33:17;16.20;99.90
37340;DHT22;23223;51.006;7.610;2023-07-31T03:35:43;16.10;99.90
37340;DHT22;23223;51.006;7.610;2023-07-31T03:38:09;16.20;99.90
37340;DHT22;23223;51.006;7.610;2023-07-31T03:40:34;16.20;99.90
37340;DHT22;23223;51.006;7.610;2023-07-31T03:43:00;16.30;99.90
37340;DHT22;23223;51.006;7.610;2023-07-31T03:45:25;16.30;99.90
37340;DHT22;23223;51.006;7.610;2023-07-31T03:47:51;16.20;99.90
37340;DHT22;23223;51.006;7.610;2023-07-31T03:50:17;16.20;99.90
37340;DHT22;23223;51.006;7.610;2023-07-31T03:52:42;16.20;99.90
37340;DHT22;23223;51.006;7.610;2023-07-31T03:55:08;16.20;99.90
37340;DHT22;23223;51.006;7.610;2023-07-31T03:57:33;16.10;99.90
37340;DHT22;23223;51.006;7.610;2023-07-31T03:59:59;16.10;99.90
37340;DHT22;23223;51.006;7.610;2023-07-31T04:02:25;16.20;99.90
37340;DHT22;23223;51.006;7.610;2023-07-31T04:04:50;16.30;99.90
37340;DHT22;23223;51.006;7.610;2023-07-31T04:07:16;16.50;99.90
37340;DHT22;23223;51.006;7.610;2023-07-31T04:09:41;16.60;99.90
37340;DHT22;23223;51.006;7.610;2023-07-31T04:12:07;16.40;99.90
37340;DHT22;23223;51.006;7.610;2023-07-31T04:14:32;16.40;99.90
37340;DHT22;23223;51.006;7.610;2023-07-31T04:16:58;16.50;99.90
37340;DHT22;23223;51.006;7.610;2023-07-31T04:19:24;16.60;99.90
37340;DHT22;23223;51.006;7.610;2023-07-31T04:21:50;16.60;99.90
37340;DHT22;23223;51.006;7.610;2023-07-31T04:24:15;16.60;99.90
37340;DHT22;23223;51.006;7.610;2023-07-31T04:26:41;16.60;99.90
37340;DHT22;23223;51.006;7.610;2023-07-31T04:29:07;16.50;99.90
37340;DHT22;23223;51.006;7.610;2023-07-31T04:31:33;16.30;99.90
37340;DHT22;23223;51.006;7.610;2023-07-31T04:33:59;16.20;99.90
37340;DHT22;23223;51.006;7.610;2023-07-31T04:36:24;16.10;99.90
37340;DHT22;23223;51.006;7.610;2023-07-31T04:38:50;16.00;99.90
37340;DHT22;23223;51.006;7.610;2023-07-31T04:41:15;16.00;99.90
37340;DHT22;23223;51.006;7.610;2023-07-31T04:43:41;16.10;99.90
37340;DHT22;23223;51.006;7.610;2023-07-31T04:46:06;16.10;99.90
37340;DHT22;23223;51.006;7.610;2023-07-31T04:48:32;16.10;99.90
37340;DHT22;23223;51.006;7.610;2023-07-31T04:50:57;16.10;99.90
37340;DHT22;23223;51.006;7.610;2023-07-31T04:53:23;16.10;99.90
37340;DHT22;23223;51.006;7.610;2023-07-31T04:55:49;16.10;99.90
37340;DHT22;23223;51.006;7.610;2023-07-31T04:58:14;16.00;99.90
37340;DHT22;23223;51.006;7.610;2023-07-31T05:00:40;16.10;99.90
37340;DHT22;23223;51.006;7.610;2023-07-31T05:03:05;16.30;99.90
37340;DHT22;23223;51.006;7.610;2023-07-31T05:05:32;16.40;99.90
37340;DHT22;23223;51.006;7.610;2023-07-31T05:07:57;16.50;99.90
37340;DHT22;23223;51.006;7.610;2023-07-31T05:10:23;16.60;99.90
37340;DHT22;23223;51.006;7.610;2023-07-31T05:12:48;16.70;99.90
37340;DHT22;23223;51.006;7.610;2023-07-31T05:15:14;16.80;99.90
37340;DHT22;23223;51.006;7.610;2023-07-31T05:17:39;16.80;99.90
37340;DHT22;23223;51.006;7.610;2023-07-31T05:20:06;16.80;99.90
37340;DHT22;23223;51.006;7.610;2023-07-31T05:22:31;16.90;99.90
37340;DHT22;23223;51.006;7.610;2023-07-31T05:24:57;16.90;99.90
37340;DHT22;23223;51.006;7.610;2023-07-31T05:27:22;16.90;99.90
37340;DHT22;23223;51.006;7.610;2023-07-31T05:29:48;16.80;99.90
37340;DHT22;23223;51.006;7.610;2023-07-31T05:32:13;16.70;99.90
37340;DHT22;23223;51.006;7.610;2023-07-31T05:34:39;16.60;99.90
37340;DHT22;23223;51.006;7.610;2023-07-31T05:37:05;16.40;99.90
37340;DHT22;23223;51.006;7.610;2023-07-31T05:39:31;16.30;99.90
37340;DHT22;23223;51.006;7.610;2023-07-31T05:41:56;16.20;99.90
37340;DHT22;23223;51.006;7.610;2023-07-31T05:44:22;16.20;99.90
37340;DHT22;23223;51.006;7.610;2023-07-31T05:46:47;16.30;99.90
37340;DHT22;23223;51.006;7.610;2023-07-31T05:49:13;16.50;99.90
37340;DHT22;23223;51.006;7.610;2023-07-31T05:51:38;16.70;99.90
37340;DHT22;23223;51.006;7.610;2023-07-31T05:54:04;16.90;99.90
37340;DHT22;23223;51.006;7.610;2023-07-31T05:56:30;16.90;99.90
37340;DHT22;23223;51.006;7.610;2023-07-31T05:58:56;17.00;99.90
37340;DHT22;23223;51.006;7.610;2023-07-31T06:01:22;17.10;99.90
37340;DHT22;23223;51.006;7.610;2023-07-31T06:03:48;17.10;99.90
37340;DHT22;23223;51.006;7.610;2023-07-31T06:06:13;17.20;99.90
37340;DHT22;23223;51.006;7.610;2023-07-31T06:08:39;17.20;99.90
37340;DHT22;23223;51.006;7.610;2023-07-31T06:11:05;17.30;99.90
37340;DHT22;23223;51.006;7.610;2023-07-31T06:13:31;17.40;99.90
37340;DHT22;23223;51.006;7.610;2023-07-31T06:15:56;17.60;99.90
37340;DHT22;23223;51.006;7.610;2023-07-31T06:18:22;17.60;99.90
37340;DHT22;23223;51.006;7.610;2023-07-31T06:20:48;17.70;99.90
37340;DHT22;23223;51.006;7.610;2023-07-31T06:23:19;17.70;99.90
37340;DHT22;23223;51.006;7.610;2023-07-31T06:25:44;17.70;99.90
37340;DHT22;23223;51.006;7.610;2023-07-31T06:28:10;17.60;99.90
37340;DHT22;23223;51.006;7.610;2023-07-31T06:30:35;17.60;99.90
37340;DHT22;23223;51.006;7.610;2023-07-31T06:33:01;17.70;99.90
37340;DHT22;23223;51.006;7.610;2023-07-31T06:35:26;17.80;99.90
37340;DHT22;23223;51.006;7.610;2023-07-31T06:37:52;17.80;99.90
37340;DHT22;23223;51.006;7.610;2023-07-31T06:40:18;17.80;99.90
37340;DHT22;23223;51.006;7.610;2023-07-31T06:42:45;17.80;99.90
37340;DHT22;23223;51.006;7.610;2023-07-31T06:45:11;17.70;99.90
37340;DHT22;23223;51.006;7.610;2023-07-31T06:47:36;17.60;99.90
37340;DHT22;23223;51.006;7.610;2023-07-31T06:50:02;17.50;99.90
37340;DHT22;23223;51.006;7.610;2023-07-31T06:52:28;17.40;99.90
37340;DHT22;23223;51.006;7.610;2023-07-31T06:55:15;17.30;99.90
37340;DHT22;23223;51.006;7.610;2023-07-31T06:57:43;17.30;99.90
37340;DHT22;23223;51.006;7.610;2023-07-31T07:00:09;17.30;99.90
37340;DHT22;23223;51.006;7.610;2023-07-31T07:02:34;17.30;99.90
37340;DHT22;23223;51.006;7.610;2023-07-31T07:05:00;17.30;99.90
37340;DHT22;23223;51.006;7.610;2023-07-31T07:07:25;17.40;99.90
37340;DHT22;23223;51.006;7.610;2023-07-31T07:09:51;17.50;99.90
37340;DHT22;23223;51.006;7.610;2023-07-31T07:12:16;17.50;99.90
37340;DHT22;23223;51.006;7.610;2023-07-31T07:14:42;17.60;99.90
37340;DHT22;23223;51.006;7.610;2023-07-31T07:17:08;17.70;99.90
37340;DHT22;23223;51.006;7.610;2023-07-31T07:19:33;17.80;99.90
37340;DHT22;23223;51.006;7.610;2023-07-31T07:21:59;17.90;99.90
37340;DHT22;23223;51.006;7.610;2023-07-31T07:24:27;18.00;99.90
37340;DHT22;23223;51.006;7.610;2023-07-31T07:26:53;18.00;99.90
37340;DHT22;23223;51.006;7.610;2023-07-31T07:29:18;18.10;99.90
37340;DHT22;23223;51.006;7.610;2023-07-31T07:31:44;18.20;99.90
37340;DHT22;23223;51.006;7.610;2023-07-31T07:34:09;18.20;99.90
37340;DHT22;23223;51.006;7.610;2023-07-31T07:36:35;18.30;99.90
37340;DHT22;23223;51.006;7.610;2023-07-31T07:39:00;18.40;99.90
37340;DHT22;23223;51.006;7.610;2023-07-31T07:41:26;18.50;99.90
37340;DHT22;23223;51.006;7.610;2023-07-31T07:43:51;18.60;99.90
37340;DHT22;23223;51.006;7.610;2023-07-31T07:46:17;18.80;99.90
37340;DHT22;23223;51.006;7.610;2023-07-31T07:48:42;19.00;99.90
37340;DHT22;23223;51.006;7.610;2023-07-31T07:51:08;19.20;99.90
37340;DHT22;23223;51.006;7.610;2023-07-31T07:53:33;19.20;99.90
37340;DHT22;23223;51.006;7.610;2023-07-31T07:55:59;19.30;99.90
37340;DHT22;23223;51.006;7.610;2023-07-31T07:58:24;19.30;99.90
37340;DHT22;23223;51.006;7.610;2023-07-31T08:00:51;19.20;99.90
37340;DHT22;23223;51.006;7.610;2023-07-31T08:03:17;19.10;99.90
37340;DHT22;23223;51.006;7.610;2023-07-31T08:05:44;19.00;99.90
37340;DHT22;23223;51.006;7.610;2023-07-31T08:08:17;18.70;99.90
37340;DHT22;23223;51.006;7.610;2023-07-31T08:10:43;18.50;99.90
37340;DHT22;23223;51.006;7.610;2023-07-31T08:13:12;18.30;99.90
37340;DHT22;23223;51.006;7.610;2023-07-31T08:15:37;18.10;99.90
37340;DHT22;23223;51.006;7.610;2023-07-31T08:18:03;18.00;99.90
37340;DHT22;23223;51.006;7.610;2023-07-31T08:20:28;17.90;99.90
37340;DHT22;23223;51.006;7.610;2023-07-31T08:22:54;18.00;99.90
37340;DHT22;23223;51.006;7.610;2023-07-31T08:25:19;18.00;99.90
37340;DHT22;23223;51.006;7.610;2023-07-31T08:27:45;18.10;99.90
37340;DHT22;23223;51.006;7.610;2023-07-31T08:30:12;18.10;99.90
37340;DHT22;23223;51.006;7.610;2023-07-31T08:32:37;18.10;99.90
37340;DHT22;23223;51.006;7.610;2023-07-31T08:35:03;18.10;99.90
37340;DHT22;23223;51.006;7.610;2023-07-31T08:37:29;17.90;99.90
37340;DHT22;23223;51.006;7.610;2023-07-31T08:39:55;17.80;99.90
37340;DHT22;23223;51.006;7.610;2023-07-31T08:42:20;17.70;99.90
37340;DHT22;23223;51.006;7.610;2023-07-31T08:44:46;17.70;99.90
37340;DHT22;23223;51.006;7.610;2023-07-31T08:47:13;17.50;99.90
37340;DHT22;23223;51.006;7.610;2023-07-31T08:49:39;17.50;99.90
37340;DHT22;23223;51.006;7.610;2023-07-31T08:52:06;17.50;99.90
37340;DHT22;23223;51.006;7.610;2023-07-31T08:54:32;17.60;99.90
37340;DHT22;23223;51.006;7.610;2023-07-31T08:56:59;17.70;99.90
37340;DHT22;23223;51.006;7.610;2023-07-31T08:59:29;17.70;99.90
37340;DHT22;23223;51.006;7.610;2023-07-31T09:01:58;17.60;99.90
37340;DHT22;23223;51.006;7.610;2023-07-31T09:04:26;17.50;99.90
37340;DHT22;23223;51.006;7.610;2023-07-31T09:06:57;17.50;99.90
37340;DHT22;23223;51.006;7.610;2023-07-31T09:09:24;17.40;99.90
37340;DHT22;23223;51.006;7.610;2023-07-31T09:11:49;17.30;99.90
37340;DHT22;23223;51.006;7.610;2023-07-31T09:14:16;17.30;99.90
37340;DHT22;23223;51.006;7.610;2023-07-31T09:16:56;17.30;99.90
37340;DHT22;23223;51.006;7.610;2023-07-31T09:19:26;17.30;99.90
37340;DHT22;23223;51.006;7.610;2023-07-31T09:21:52;17.30;99.90
37340;DHT22;23223;51.006;7.610;2023-07-31T09:24:28;17.40;99.90
37340;DHT22;23223;51.006;7.610;2023-07-31T09:26:56;17.60;99.90
37340;DHT22;23223;51.006;7.610;2023-07-31T09:29:22;17.60;99.90
37340;DHT22;23223;51.006;7.610;2023-07-31T09:31:48;17.60;99.90
37340;DHT22;23223;51.006;7.610;2023-07-31T09:34:13;17.60;99.90
37340;DHT22;23223;51.006;7.610;2023-07-31T09:36:43;17.70;99.90
37340;DHT22;23223;51.006;7.610;2023-07-31T09:39:11;17.80;99.90
37340;DHT22;23223;51.006;7.610;2023-07-31T09:41:39;17.90;99.90
37340;DHT22;23223;51.006;7.610;2023-07-31T09:44:05;18.00;99.90
37340;DHT22;23223;51.006;7.610;2023-07-31T09:46:30;18.10;99.90
37340;DHT22;23223;51.006;7.610;2023-07-31T09:49:07;18.10;99.90
37340;DHT22;23223;51.006;7.610;2023-07-31T09:51:34;18.20;99.90
37340;DHT22;23223;51.006;7.610;2023-07-31T09:54:08;18.20;99.90
37340;DHT22;23223;51.006;7.610;2023-07-31T09:56:34;18.20;99.90
37340;DHT22;23223;51.006;7.610;2023-07-31T09:59:01;18.20;99.90
37340;DHT22;23223;51.006;7.610;2023-07-31T10:01:27;18.10;99.90
37340;DHT22;23223;51.006;7.610;2023-07-31T10:03:52;18.00;99.90
37340;DHT22;23223;51.006;7.610;2023-07-31T10:06:18;18.00;99.90
37340;DHT22;23223;51.006;7.610;2023-07-31T10:08:46;18.00;99.90
37340;DHT22;23223;51.006;7.610;2023-07-31T10:11:13;18.00;99.90
37340;DHT22;23223;51.006;7.610;2023-07-31T10:13:40;18.20;99.90
37340;DHT22;23223;51.006;7.610;2023-07-31T10:16:07;18.20;99.90
37340;DHT22;23223;51.006;7.610;2023-07-31T10:18:34;18.20;99.90
37340;DHT22;23223;51.006;7.610;2023-07-31T10:21:01;18.20;99.90
37340;DHT22;23223;51.006;7.610;2023-07-31T10:23:27;18.30;99.90
37340;DHT22;23223;51.006;7.610;2023-07-31T10:25:53;18.20;99.90
37340;DHT22;23223;51.006;7.610;2023-07-31T10:28:20;18.10;99.90
37340;DHT22;23223;51.006;7.610;2023-07-31T10:30:46;18.00;99.90
37340;DHT22;23223;51.006;7.610;2023-07-31T10:33:12;18.00;99.90
37340;DHT22;23223;51.006;7.610;2023-07-31T10:35:38;17.90;99.90
37340;DHT22;23223;51.006;7.610;2023-07-31T10:38:12;17.90;99.90
37340;DHT22;23223;51.006;7.610;2023-07-31T10:40:38;17.80;99.90
37340;DHT22;23223;51.006;7.610;2023-07-31T10:43:05;17.80;99.90
37340;DHT22;23223;51.006;7.610;2023-07-31T10:45:39;17.80;99.90
37340;DHT22;23223;51.006;7.610;2023-07-31T10:48:13;17.80;99.90
37340;DHT22;23223;51.006;7.610;2023-07-31T10:50:50;17.80;99.90
37340;DHT22;23223;51.006;7.610;2023-07-31T10:55:52;17.70;99.90
37340;DHT22;23223;51.006;7.610;2023-07-31T10:58:19;17.80;99.90
37340;DHT22;23223;51.006;7.610;2023-07-31T11:00:45;18.00;99.90
37340;DHT22;23223;51.006;7.610;2023-07-31T11:03:15;18.20;99.90
37340;DHT22;23223;51.006;7.610;2023-07-31T11:08:25;18.60;99.90
37340;DHT22;23223;51.006;7.610;2023-07-31T11:13:26;18.50;99.90
37340;DHT22;23223;51.006;7.610;2023-07-31T11:15:51;18.60;99.90
37340;DHT22;23223;51.006;7.610;2023-07-31T11:18:17;18.60;99.90
37340;DHT22;23223;51.006;7.610;2023-07-31T11:20:43;18.60;99.90
37340;DHT22;23223;51.006;7.610;2023-07-31T11:23:10;18.60;99.90
37340;DHT22;23223;51.006;7.610;2023-07-31T11:25:37;18.80;99.90
37340;DHT22;23223;51.006;7.610;2023-07-31T11:28:11;18.90;99.90
37340;DHT22;23223;51.006;7.610;2023-07-31T11:30:37;19.10;99.90
37340;DHT22;23223;51.006;7.610;2023-07-31T11:33:04;19.20;99.90
37340;DHT22;23223;51.006;7.610;2023-07-31T11:35:35;19.20;99.90
37340;DHT22;23223;51.006;7.610;2023-07-31T11:38:01;19.40;99.90
37340;DHT22;23223;51.006;7.610;2023-07-31T11:40:27;19.50;99.90
37340;DHT22;23223;51.006;7.610;2023-07-31T11:43:03;19.60;99.90
37340;DHT22;23223;51.006;7.610;2023-07-31T11:45:29;19.80;99.90
37340;DHT22;23223;51.006;7.610;2023-07-31T11:47:55;19.80;99.90
37340;DHT22;23223;51.006;7.610;2023-07-31T11:50:22;19.80;99.90
37340;DHT22;23223;51.006;7.610;2023-07-31T11:52:52;19.70;99.90
37340;DHT22;23223;51.006;7.610;2023-07-31T11:55:20;19.70;99.90
37340;DHT22;23223;51.006;7.610;2023-07-31T11:57:45;19.70;99.90
37340;DHT22;23223;51.006;7.610;2023-07-31T12:00:12;19.70;99.90
37340;DHT22;23223;51.006;7.610;2023-07-31T12:02:39;19.70;99.90
37340;DHT22;23223;51.006;7.610;2023-07-31T12:05:06;19.80;99.90
37340;DHT22;23223;51.006;7.610;2023-07-31T12:07:54;19.90;99.90
37340;DHT22;23223;51.006;7.610;2023-07-31T12:10:31;19.70;99.90
37340;DHT22;23223;51.006;7.610;2023-07-31T12:12:59;19.60;99.90
37340;DHT22;23223;51.006;7.610;2023-07-31T12:15:44;19.40;99.90
37340;DHT22;23223;51.006;7.610;2023-07-31T12:18:11;19.10;99.90
37340;DHT22;23223;51.006;7.610;2023-07-31T12:20:46;19.00;99.90
37340;DHT22;23223;51.006;7.610;2023-07-31T12:23:22;18.80;99.90
37340;DHT22;23223;51.006;7.610;2023-07-31T12:26:19;18.60;99.90
37340;DHT22;23223;51.006;7.610;2023-07-31T12:28:47;18.50;99.90
37340;DHT22;23223;51.006;7.610;2023-07-31T12:31:21;18.40;99.90
37340;DHT22;23223;51.006;7.610;2023-07-31T12:33:48;18.50;99.90
37340;DHT22;23223;51.006;7.610;2023-07-31T12:36:18;18.60;99.90
37340;DHT22;23223;51.006;7.610;2023-07-31T12:38:44;18.70;99.90
37340;DHT22;23223;51.006;7.610;2023-07-31T12:41:10;18.90;99.90
37340;DHT22;23223;51.006;7.610;2023-07-31T12:43:37;19.00;99.90
37340;DHT22;23223;51.006;7.610;2023-07-31T12:46:04;19.20;99.90
37340;DHT22;23223;51.006;7.610;2023-07-31T12:48:32;19.40;99.90
37340;DHT22;23223;51.006;7.610;2023-07-31T12:50:57;19.60;99.90
37340;DHT22;23223;51.006;7.610;2023-07-31T12:53:23;19.70;99.90
37340;DHT22;23223;51.006;7.610;2023-07-31T12:55:49;19.80;99.90
37340;DHT22;23223;51.006;7.610;2023-07-31T12:58:15;19.70;99.90
37340;DHT22;23223;51.006;7.610;2023-07-31T13:00:41;19.60;99.90
37340;DHT22;23223;51.006;7.610;2023-07-31T13:03:06;19.50;99.90
37340;DHT22;23223;51.006;7.610;2023-07-31T13:05:32;19.40;99.90
37340;DHT22;23223;51.006;7.610;2023-07-31T13:07:57;19.30;99.90
37340;DHT22;23223;51.006;7.610;2023-07-31T13:10:23;19.20;99.90
37340;DHT22;23223;51.006;7.610;2023-07-31T13:12:49;19.20;99.90
37340;DHT22;23223;51.006;7.610;2023-07-31T13:15:15;19.20;99.90
37340;DHT22;23223;51.006;7.610;2023-07-31T13:17:41;19.20;99.90
37340;DHT22;23223;51.006;7.610;2023-07-31T13:20:07;19.20;99.90
37340;DHT22;23223;51.006;7.610;2023-07-31T13:22:33;19.20;99.90
37340;DHT22;23223;51.006;7.610;2023-07-31T13:24:58;19.20;99.90
37340;DHT22;23223;51.006;7.610;2023-07-31T13:27:24;19.20;99.90
37340;DHT22;23223;51.006;7.610;2023-07-31T13:29:53;19.30;99.90
37340;DHT22;23223;51.006;7.610;2023-07-31T13:32:19;19.30;99.90
37340;DHT22;23223;51.006;7.610;2023-07-31T13:34:46;19.30;99.90
37340;DHT22;23223;51.006;7.610;2023-07-31T13:37:12;19.20;99.90
37340;DHT22;23223;51.006;7.610;2023-07-31T13:39:38;19.20;99.90
37340;DHT22;23223;51.006;7.610;2023-07-31T13:42:04;19.10;99.90
37340;DHT22;23223;51.006;7.610;2023-07-31T13:44:36;19.00;99.90
37340;DHT22;23223;51.006;7.610;2023-07-31T13:47:02;19.00;99.90
37340;DHT22;23223;51.006;7.610;2023-07-31T13:49:28;19.00;99.90
37340;DHT22;23223;51.006;7.610;2023-07-31T13:51:54;18.90;99.90
37340;DHT22;23223;51.006;7.610;2023-07-31T13:54:19;18.80;99.90
37340;DHT22;23223;51.006;7.610;2023-07-31T13:56:45;18.80;99.90
37340;DHT22;23223;51.006;7.610;2023-07-31T13:59:11;18.90;99.90
37340;DHT22;23223;51.006;7.610;2023-07-31T14:01:37;19.00;99.90
37340;DHT22;23223;51.006;7.610;2023-07-31T14:04:02;19.20;99.90
37340;DHT22;23223;51.006;7.610;2023-07-31T14:06:28;19.40;99.90
37340;DHT22;23223;51.006;7.610;2023-07-31T14:08:54;19.70;99.90
37340;DHT22;23223;51.006;7.610;2023-07-31T14:11:21;19.70;99.90
37340;DHT22;23223;51.006;7.610;2023-07-31T14:13:47;19.70;99.90
37340;DHT22;23223;51.006;7.610;2023-07-31T14:16:12;19.70;99.90
37340;DHT22;23223;51.006;7.610;2023-07-31T14:18:38;19.90;99.90
37340;DHT22;23223;51.006;7.610;2023-07-31T14:21:03;20.10;99.90
37340;DHT22;23223;51.006;7.610;2023-07-31T14:23:29;20.60;99.90
37340;DHT22;23223;51.006;7.610;2023-07-31T14:25:55;21.10;99.90
37340;DHT22;23223;51.006;7.610;2023-07-31T14:28:20;21.50;99.90
37340;DHT22;23223;51.006;7.610;2023-07-31T14:30:46;22.00;99.90
37340;DHT22;23223;51.006;7.610;2023-07-31T14:33:11;22.10;99.90
37340;DHT22;23223;51.006;7.610;2023-07-31T14:35:37;22.10;99.90
37340;DHT22;23223;51.006;7.610;2023-07-31T14:38:02;21.90;99.90
37340;DHT22;23223;51.006;7.610;2023-07-31T14:40:28;21.70;99.90
37340;DHT22;23223;51.006;7.610;2023-07-31T14:42:53;21.70;99.90
37340;DHT22;23223;51.006;7.610;2023-07-31T14:45:19;21.50;99.90
37340;DHT22;23223;51.006;7.610;2023-07-31T14:47:44;21.40;99.90
37340;DHT22;23223;51.006;7.610;2023-07-31T14:50:10;21.20;99.90
37340;DHT22;23223;51.006;7.610;2023-07-31T14:52:36;21.00;99.90
37340;DHT22;23223;51.006;7.610;2023-07-31T14:55:02;20.80;99.90
37340;DHT22;23223;51.006;7.610;2023-07-31T14:57:27;20.70;99.90
37340;DHT22;23223;51.006;7.610;2023-07-31T14:59:53;20.50;99.90
37340;DHT22;23223;51.006;7.610;2023-07-31T15:02:18;20.40;99.90
37340;DHT22;23223;51.006;7.610;2023-07-31T15:04:44;20.30;99.90
37340;DHT22;23223;51.006;7.610;2023-07-31T15:07:09;20.30;99.90
37340;DHT22;23223;51.006;7.610;2023-07-31T15:09:35;20.20;99.90
37340;DHT22;23223;51.006;7.610;2023-07-31T15:12:01;20.10;99.90
37340;DHT22;23223;51.006;7.610;2023-07-31T15:14:26;19.90;99.90
37340;DHT22;23223;51.006;7.610;2023-07-31T15:16:53;19.70;99.90
37340;DHT22;23223;51.006;7.610;2023-07-31T15:19:19;19.60;99.90
37340;DHT22;23223;51.006;7.610;2023-07-31T15:21:47;19.50;99.90
37340;DHT22;23223;51.006;7.610;2023-07-31T15:24:13;19.40;99.90
37340;DHT22;23223;51.006;7.610;2023-07-31T15:26:38;19.40;99.90
37340;DHT22;23223;51.006;7.610;2023-07-31T15:29:06;19.30;99.90
37340;DHT22;23223;51.006;7.610;2023-07-31T15:31:43;19.40;99.90
37340;DHT22;23223;51.006;7.610;2023-07-31T15:34:09;19.40;99.90
37340;DHT22;23223;51.006;7.610;2023-07-31T15:36:34;19.40;99.90
37340;DHT22;23223;51.006;7.610;2023-07-31T15:39:00;19.50;99.90